createdAt,value
2022-11-13T00:02:40.571Z,4.38
2022-11-13T00:05:26.903Z,4.55
2022-11-13T00:08:12.887Z,3.22
2022-11-13T00:11:18.340Z,1.35
2022-11-13T00:14:04.855Z,1.20
2022-11-13T00:16:57.056Z,1.08
2022-11-13T00:19:43.056Z,1.13
2022-11-13T00:22:29.192Z,0.82
2022-11-13T00:25:15.033Z,1.00
2022-11-13T00:28:01.128Z,1.23
2022-11-13T00:30:46.739Z,1.05
2022-11-13T00:34:01.949Z,1.15
2022-11-13T00:36:38.784Z,0.60
2022-11-13T00:39:24.858Z,1.00
2022-11-13T00:42:10.980Z,0.60
2022-11-13T00:44:56.871Z,0.90
2022-11-13T00:47:42.737Z,0.85
2022-11-13T00:50:29.103Z,0.90
2022-11-13T00:53:18.195Z,0.80
2022-11-13T00:56:04.766Z,0.88
2022-11-13T00:58:51.357Z,0.57
2022-11-13T01:01:37.479Z,0.80
2022-11-13T01:04:23.780Z,0.70
2022-11-13T01:07:09.751Z,1.10
2022-11-13T01:09:55.930Z,0.70
2022-11-13T01:12:42.363Z,1.30
2022-11-13T01:15:28.364Z,0.90
2022-11-13T01:18:14.304Z,1.40
2022-11-13T01:21:12.081Z,0.88
2022-11-13T01:23:58.187Z,0.93
2022-11-13T01:26:44.164Z,0.75
2022-11-13T01:29:29.796Z,1.10
2022-11-13T01:32:15.941Z,1.00
2022-11-13T01:35:01.860Z,0.75
2022-11-13T01:37:47.766Z,0.80
2022-11-13T01:40:33.805Z,1.13
2022-11-13T01:43:28.163Z,0.95
2022-11-13T01:46:14.623Z,0.90
2022-11-13T01:49:09.284Z,0.98
2022-11-13T01:51:59.848Z,0.60
2022-11-13T01:54:58.641Z,0.90
2022-11-13T01:57:44.994Z,1.23
2022-11-13T02:00:30.925Z,1.20
2022-11-13T02:03:16.769Z,0.93
2022-11-13T02:06:03.273Z,0.90
2022-11-13T02:08:50.697Z,0.70
2022-11-13T02:11:37.699Z,0.77
2022-11-13T02:14:25.977Z,0.73
2022-11-13T02:17:16.663Z,0.90
2022-11-13T02:20:06.274Z,0.77
2022-11-13T02:23:17.128Z,1.00
2022-11-13T02:26:04.881Z,0.70
2022-11-13T02:28:50.864Z,0.73
2022-11-13T02:31:37.025Z,0.80
2022-11-13T02:34:23.604Z,1.00
2022-11-13T02:37:09.549Z,1.33
2022-11-13T02:39:55.593Z,1.00
2022-11-13T02:42:41.942Z,0.80
2022-11-13T02:45:29.630Z,1.10
2022-11-13T02:48:15.661Z,1.33
2022-11-13T02:51:01.525Z,0.90
2022-11-13T02:53:47.361Z,1.17
2022-11-13T02:56:33.379Z,1.10
2022-11-13T02:59:19.682Z,1.13
2022-11-13T03:02:05.799Z,1.00
2022-11-13T03:07:58.463Z,1.08
2022-11-13T03:10:44.874Z,1.30
2022-11-13T03:13:30.815Z,1.17
2022-11-13T03:16:17.939Z,1.00
2022-11-13T03:19:04.603Z,0.80
2022-11-13T03:21:50.723Z,0.95
2022-11-13T03:24:36.959Z,0.70
2022-11-13T03:27:23.048Z,1.13
2022-11-13T03:30:10.097Z,0.90
2022-11-13T03:32:56.794Z,1.10
2022-11-13T03:35:46.876Z,1.20
2022-11-13T03:38:34.372Z,1.10
2022-11-13T03:41:21.336Z,1.35
2022-11-13T03:44:07.627Z,0.80
2022-11-13T03:46:53.596Z,1.33
2022-11-13T03:49:39.363Z,1.27
2022-11-13T03:52:25.234Z,1.10
2022-11-13T03:55:11.333Z,1.10
2022-11-13T03:57:59.789Z,1.40
2022-11-13T04:00:47.081Z,1.17
2022-11-13T04:03:32.864Z,1.30
2022-11-13T04:06:19.306Z,1.50
2022-11-13T04:09:05.598Z,1.23
2022-11-13T04:11:51.450Z,1.50
2022-11-13T04:14:37.183Z,1.20
2022-11-13T04:17:23.408Z,1.35
2022-11-13T04:20:10.250Z,1.08
2022-11-13T04:22:59.273Z,1.15
2022-11-13T04:25:45.306Z,1.60
2022-11-13T04:28:31.660Z,1.75
2022-11-13T04:31:18.232Z,1.50
2022-11-13T04:34:04.124Z,1.42
2022-11-13T04:36:49.906Z,1.63
2022-11-13T04:39:35.888Z,1.30
2022-11-13T04:42:40.220Z,1.60
2022-11-13T04:45:28.825Z,1.92
2022-11-13T04:48:15.385Z,1.70
2022-11-13T04:51:01.259Z,1.60
2022-11-13T04:53:47.106Z,1.42
2022-11-13T04:56:33.165Z,1.60
2022-11-13T04:59:18.947Z,1.90
2022-11-13T05:02:05.251Z,1.67
2022-11-13T05:04:51.442Z,1.83
2022-11-13T05:07:38.063Z,1.63
2022-11-13T05:10:24.178Z,1.60
2022-11-13T05:13:09.910Z,1.70
2022-11-13T05:16:08.502Z,1.38
2022-11-13T05:18:55.435Z,1.77
2022-11-13T05:21:41.528Z,1.67
2022-11-13T05:24:27.752Z,1.23
2022-11-13T05:27:17.277Z,1.58
2022-11-13T05:30:04.159Z,1.27
2022-11-13T05:32:50.347Z,1.80
2022-11-13T05:35:36.436Z,1.60
2022-11-13T05:38:22.308Z,1.50
2022-11-13T05:41:10.307Z,1.85
2022-11-13T05:43:59.548Z,1.13
2022-11-13T05:46:46.250Z,1.58
2022-11-13T05:49:32.274Z,2.08
2022-11-13T05:52:18.535Z,1.77
2022-11-13T05:55:05.699Z,2.05
2022-11-13T05:57:51.835Z,1.80
2022-11-13T06:00:37.838Z,1.77
2022-11-13T06:03:23.777Z,1.60
2022-11-13T06:06:13.610Z,1.70
2022-11-13T06:09:01.396Z,2.08
2022-11-13T06:11:47.099Z,2.03
2022-11-13T06:14:33.018Z,1.80
2022-11-13T06:17:18.937Z,2.00
2022-11-13T06:20:09.144Z,1.73
2022-11-13T06:22:55.329Z,1.73
2022-11-13T06:25:41.229Z,1.98
2022-11-13T06:28:27.874Z,1.67
2022-11-13T06:31:26.411Z,1.65
2022-11-13T06:34:12.637Z,1.88
2022-11-13T06:36:59.166Z,2.35
2022-11-13T06:39:47.415Z,2.08
2022-11-13T06:42:33.931Z,1.98
2022-11-13T06:45:20.024Z,1.38
2022-11-13T06:48:06.370Z,2.25
2022-11-13T06:50:52.492Z,2.05
2022-11-13T06:53:38.096Z,1.98
2022-11-13T06:56:24.812Z,1.85
2022-11-13T06:59:10.632Z,1.92
2022-11-13T07:01:57.077Z,1.70
2022-11-13T07:04:43.222Z,2.15
2022-11-13T07:07:29.466Z,1.60
2022-11-13T07:10:15.664Z,2.22
2022-11-13T07:13:01.817Z,2.33
2022-11-13T07:15:47.518Z,2.08
2022-11-13T07:18:34.181Z,2.10
2022-11-13T07:21:21.295Z,2.28
2022-11-13T07:24:10.417Z,2.22
2022-11-13T07:26:58.679Z,2.63
2022-11-13T07:29:44.656Z,2.00
2022-11-13T07:32:30.363Z,2.40
2022-11-13T07:35:16.937Z,1.60
2022-11-13T07:38:03.050Z,2.00
2022-11-13T07:40:49.012Z,1.50
2022-11-13T07:43:35.099Z,1.65
2022-11-13T07:46:20.819Z,1.67
2022-11-13T07:49:06.860Z,1.50
2022-11-13T07:51:52.726Z,1.30
2022-11-13T07:54:38.399Z,1.70
2022-11-13T07:57:27.379Z,1.55
2022-11-13T08:00:14.561Z,1.52
2022-11-13T08:03:09.512Z,1.63
2022-11-13T08:06:02.236Z,1.35
2022-11-13T08:08:49.778Z,1.73
2022-11-13T08:11:36.445Z,1.38
2022-11-13T08:14:22.274Z,1.80
2022-11-13T08:17:08.419Z,1.80
2022-11-13T08:19:54.314Z,2.03
2022-11-13T08:22:40.614Z,1.55
2022-11-13T08:25:26.836Z,1.60
2022-11-13T08:28:13.489Z,1.33
2022-11-13T08:30:59.651Z,1.67
2022-11-13T08:33:46.099Z,1.30
2022-11-13T08:36:31.972Z,1.60
2022-11-13T08:39:18.089Z,2.75
2022-11-13T08:42:04.933Z,2.45
2022-11-13T08:44:51.215Z,2.38
2022-11-13T08:47:37.471Z,2.85
2022-11-13T08:50:23.462Z,2.13
2022-11-13T08:53:09.482Z,2.15
2022-11-13T08:55:55.777Z,1.88
2022-11-13T08:58:41.507Z,2.75
2022-11-13T09:01:27.574Z,2.22
2022-11-13T09:04:13.698Z,2.17
2022-11-13T09:06:59.930Z,2.90
2022-11-13T09:09:46.278Z,2.58
2022-11-13T09:12:32.196Z,2.28
2022-11-13T09:15:21.768Z,2.90
2022-11-13T09:18:11.007Z,2.03
2022-11-13T09:21:01.960Z,2.58
2022-11-13T09:23:47.944Z,2.50
2022-11-13T09:26:35.826Z,2.08
2022-11-13T09:29:23.448Z,2.15
2022-11-13T09:32:09.659Z,2.08
2022-11-13T09:34:55.473Z,1.95
2022-11-13T09:37:41.266Z,1.88
2022-11-13T09:40:32.398Z,1.92
2022-11-13T09:43:59.491Z,1.73
2022-11-13T09:46:59.430Z,1.90
2022-11-13T09:49:56.708Z,1.77
2022-11-13T09:52:44.530Z,2.00
2022-11-13T09:55:38.604Z,1.70
2022-11-13T09:58:36.075Z,1.73
2022-11-13T10:02:11.939Z,1.88
2022-11-13T10:05:17.787Z,2.25
2022-11-13T10:08:30.437Z,1.88
2022-11-13T10:11:35.488Z,2.00
2022-11-13T10:14:21.421Z,2.47
2022-11-13T10:17:26.807Z,2.30
2022-11-13T10:20:16.216Z,2.55
2022-11-13T10:23:09.551Z,1.88
2022-11-13T10:26:00.394Z,2.20
2022-11-13T10:28:51.384Z,3.08
2022-11-13T10:31:46.757Z,2.17
2022-11-13T10:34:33.421Z,2.45
2022-11-13T10:37:31.699Z,2.10
2022-11-13T10:40:29.198Z,2.30
2022-11-13T10:43:20.361Z,2.17
2022-11-13T10:46:06.762Z,3.08
2022-11-13T10:48:53.084Z,2.88
2022-11-13T10:51:39.847Z,3.10
2022-11-13T10:54:31.952Z,3.15
2022-11-13T10:57:38.346Z,2.60
2022-11-13T11:00:31.085Z,2.88
2022-11-13T11:03:23.467Z,3.88
2022-11-13T11:06:10.181Z,2.90
2022-11-13T11:09:15.214Z,3.05
2022-11-13T11:12:16.449Z,3.63
2022-11-13T11:15:27.702Z,3.45
2022-11-13T11:18:32.338Z,3.70
2022-11-13T11:21:36.596Z,2.90
2022-11-13T11:24:29.810Z,3.47
2022-11-13T11:27:25.994Z,3.72
2022-11-13T11:30:23.455Z,3.60
2022-11-13T11:33:37.438Z,4.05
2022-11-13T11:36:48.573Z,2.75
2022-11-13T11:39:42.511Z,3.45
2022-11-13T11:42:34.697Z,3.30
2022-11-13T11:45:30.188Z,3.30
2022-11-13T11:48:20.137Z,3.08
2022-11-13T11:51:17.511Z,3.13
2022-11-13T11:54:44.703Z,3.63
2022-11-13T11:58:04.244Z,3.40
2022-11-13T12:00:53.252Z,3.80
2022-11-13T12:03:50.528Z,3.50
2022-11-13T12:07:15.316Z,3.63
2022-11-13T12:10:11.168Z,3.63
2022-11-13T12:13:15.594Z,3.63
2022-11-13T12:16:04.363Z,3.17
2022-11-13T12:19:16.782Z,3.03
2022-11-13T12:22:30.687Z,3.80
2022-11-13T12:25:35.003Z,4.22
2022-11-13T12:28:41.185Z,3.30
2022-11-13T12:31:48.815Z,3.28
2022-11-13T12:34:41.283Z,3.95
2022-11-13T12:37:33.779Z,3.50
2022-11-13T12:40:37.501Z,3.45
2022-11-13T12:43:31.380Z,4.47
2022-11-13T12:46:18.148Z,4.00
2022-11-13T12:49:23.925Z,4.53
2022-11-13T12:52:15.879Z,4.28
2022-11-13T12:55:26.755Z,3.97
2022-11-13T12:58:26.007Z,4.85
2022-11-13T13:01:12.335Z,4.03
2022-11-13T13:04:22.758Z,4.07
2022-11-13T13:07:37.160Z,4.28
2022-11-13T13:10:36.973Z,4.80
2022-11-13T13:13:50.146Z,4.45
2022-11-13T13:16:35.788Z,5.07
2022-11-13T13:19:31.074Z,4.50
2022-11-13T13:22:32.563Z,4.65
2022-11-13T13:25:35.472Z,4.97
2022-11-13T13:28:24.779Z,4.82
2022-11-13T13:31:19.337Z,4.35
2022-11-13T13:34:19.792Z,4.70
2022-11-13T13:37:19.542Z,4.05
2022-11-13T13:40:14.186Z,4.40
2022-11-13T13:43:22.158Z,5.00
2022-11-13T13:46:21.760Z,4.82
2022-11-13T13:49:20.469Z,4.60
2022-11-13T13:52:06.462Z,4.72
2022-11-13T13:54:52.367Z,4.85
2022-11-13T13:57:42.471Z,4.25
2022-11-13T14:00:29.035Z,4.20
2022-11-13T14:03:20.215Z,5.07
2022-11-13T14:06:24.897Z,4.70
2022-11-13T14:09:18.055Z,4.90
2022-11-13T14:12:17.413Z,4.67
2022-11-13T14:15:22.769Z,4.65
2022-11-13T14:21:16.626Z,5.72
2022-11-13T14:24:03.636Z,5.30
2022-11-13T14:26:52.034Z,5.03
2022-11-13T14:29:50.515Z,5.97
2022-11-13T14:32:45.682Z,6.03
2022-11-13T14:35:33.170Z,6.18
2022-11-13T14:38:22.852Z,5.20
2022-11-13T14:41:26.275Z,6.15
2022-11-13T14:44:12.743Z,5.90
2022-11-13T14:47:04.594Z,5.22
2022-11-13T14:49:50.323Z,6.45
2022-11-13T14:52:36.239Z,5.15
2022-11-13T14:55:28.540Z,6.55
2022-11-13T14:58:14.863Z,6.07
2022-11-13T15:01:12.622Z,6.53
2022-11-13T15:03:58.468Z,7.05
2022-11-13T15:06:44.709Z,7.45
2022-11-13T15:09:31.452Z,6.75
2022-11-13T15:12:17.379Z,6.38
2022-11-13T15:15:03.601Z,6.82
2022-11-13T15:17:51.165Z,6.90
2022-11-13T15:20:37.212Z,6.20
2022-11-13T15:23:25.798Z,6.70
2022-11-13T15:26:12.358Z,6.13
2022-11-13T15:28:58.122Z,6.55
2022-11-13T15:31:46.117Z,6.28
2022-11-13T15:34:31.734Z,6.72
2022-11-13T15:37:17.966Z,7.35
2022-11-13T15:40:04.938Z,5.88
2022-11-13T15:42:51.091Z,6.30
2022-11-13T15:45:41.215Z,6.53
2022-11-13T15:48:29.840Z,6.77
2022-11-13T15:51:27.159Z,7.18
2022-11-13T15:54:28.041Z,6.68
2022-11-13T15:57:18.677Z,6.53
2022-11-13T16:00:06.879Z,7.15
2022-11-13T16:02:57.161Z,8.15
2022-11-13T16:05:43.055Z,7.13
2022-11-13T16:08:29.041Z,7.07
2022-11-13T16:11:20.171Z,7.35
2022-11-13T16:14:05.837Z,7.25
2022-11-13T16:16:52.852Z,7.20
2022-11-13T16:19:39.387Z,8.00
2022-11-13T16:22:26.818Z,7.43
2022-11-13T16:25:17.603Z,7.93
2022-11-13T16:28:03.509Z,8.45
2022-11-13T16:30:50.235Z,7.75
2022-11-13T16:33:36.439Z,7.78
2022-11-13T16:36:22.793Z,8.65
2022-11-13T16:39:15.998Z,8.07
2022-11-13T16:42:02.237Z,8.55
2022-11-13T16:44:48.125Z,7.18
2022-11-13T16:47:34.174Z,7.35
2022-11-13T16:50:31.099Z,8.05
2022-11-13T16:53:16.912Z,8.63
2022-11-13T16:56:10.664Z,8.13
2022-11-13T17:01:42.951Z,8.30
2022-11-13T17:04:28.601Z,9.27
2022-11-13T17:07:15.610Z,9.48
2022-11-13T17:10:29.519Z,9.40
2022-11-13T17:13:06.961Z,10.60
2022-11-13T17:15:53.081Z,11.38
2022-11-13T17:18:39.125Z,10.90
2022-11-13T17:21:29.576Z,9.85
2022-11-13T17:24:15.281Z,9.80
2022-11-13T17:27:01.610Z,9.82
2022-11-13T17:29:47.502Z,9.20
2022-11-13T17:32:33.564Z,9.80
2022-11-13T17:35:19.444Z,9.90
2022-11-13T17:38:05.567Z,10.05
2022-11-13T17:40:52.842Z,9.88
2022-11-13T17:43:40.336Z,11.13
2022-11-13T17:46:26.252Z,11.10
2022-11-13T17:49:12.229Z,11.52
2022-11-13T17:51:58.083Z,11.15
2022-11-13T17:54:44.404Z,10.00
2022-11-13T17:57:31.703Z,10.73
2022-11-13T18:00:18.109Z,11.40
2022-11-13T18:03:03.861Z,10.57
2022-11-13T18:05:50.005Z,11.05
2022-11-13T18:08:38.168Z,11.95
2022-11-13T18:11:26.524Z,10.95
2022-11-13T18:14:12.516Z,9.93
2022-11-13T18:16:58.357Z,10.55
2022-11-13T18:19:44.803Z,9.35
2022-11-13T18:22:31.577Z,11.43
2022-11-13T18:25:18.209Z,11.02
2022-11-13T18:28:04.137Z,9.73
2022-11-13T18:30:56.126Z,10.57
2022-11-13T18:33:42.853Z,10.52
2022-11-13T18:36:29.219Z,9.30
2022-11-13T18:39:16.864Z,10.50
2022-11-13T18:42:03.683Z,10.32
2022-11-13T18:44:49.535Z,10.18
2022-11-13T18:47:35.550Z,8.98
2022-11-13T18:50:22.679Z,9.45
2022-11-13T18:53:08.427Z,10.60
2022-11-13T18:56:02.507Z,9.85
2022-11-13T18:58:49.872Z,12.30
2022-11-13T19:01:38.216Z,11.50
2022-11-13T19:04:24.648Z,12.15
2022-11-13T19:07:12.266Z,12.85
2022-11-13T19:09:58.571Z,11.45
2022-11-13T19:12:44.566Z,11.20
2022-11-13T19:15:30.560Z,10.32
2022-11-13T19:18:16.338Z,11.63
2022-11-13T19:21:22.995Z,10.85
2022-11-13T19:24:10.021Z,11.90
2022-11-13T19:26:55.781Z,11.80
2022-11-13T19:29:41.630Z,11.93
2022-11-13T19:32:27.644Z,12.05
2022-11-13T19:35:13.849Z,11.45
2022-11-13T19:38:00.926Z,13.00
2022-11-13T19:40:48.427Z,12.68
2022-11-13T19:43:35.990Z,10.80
2022-11-13T19:46:22.030Z,10.88
2022-11-13T19:49:07.981Z,10.57
2022-11-13T19:51:54.980Z,10.25
2022-11-13T19:54:42.049Z,9.35
2022-11-13T19:57:27.628Z,9.88
2022-11-13T20:00:14.081Z,9.82
2022-11-13T20:03:05.153Z,10.35
2022-11-13T20:05:55.931Z,10.23
2022-11-13T20:08:42.086Z,10.85
2022-11-13T20:11:28.467Z,10.23
2022-11-13T20:14:14.612Z,9.80
2022-11-13T20:17:00.395Z,10.60
2022-11-13T20:19:46.581Z,10.38
2022-11-13T20:22:32.349Z,10.32
2022-11-13T20:25:18.309Z,12.05
2022-11-13T20:28:04.952Z,10.65
2022-11-13T20:30:52.614Z,10.32
2022-11-13T20:33:39.137Z,11.75
2022-11-13T20:36:25.604Z,10.85
2022-11-13T20:39:12.669Z,11.32
2022-11-13T20:41:59.055Z,11.80
2022-11-13T20:44:45.033Z,12.13
2022-11-13T20:47:33.142Z,11.93
2022-11-13T20:50:18.952Z,12.80
2022-11-13T20:53:07.173Z,11.75
2022-11-13T20:55:53.809Z,12.95
2022-11-13T20:58:40.663Z,12.50
2022-11-13T21:01:26.715Z,12.63
2022-11-13T21:04:12.613Z,11.43
2022-11-13T21:06:59.274Z,10.77
2022-11-13T21:09:48.896Z,11.00
2022-11-13T21:12:36.543Z,11.32
2022-11-13T21:15:22.679Z,11.48
2022-11-13T21:18:08.783Z,12.93
2022-11-13T21:20:54.821Z,11.35
2022-11-13T21:23:40.705Z,11.73
2022-11-13T21:26:28.311Z,11.60
2022-11-13T21:29:14.233Z,12.15
2022-11-13T21:32:00.119Z,12.10
2022-11-13T21:34:46.554Z,12.43
2022-11-13T21:37:33.903Z,11.57
2022-11-13T21:40:20.399Z,13.95
2022-11-13T21:43:06.285Z,13.70
2022-11-13T21:45:52.236Z,12.82
2022-11-13T21:48:38.433Z,13.13
2022-11-13T21:51:25.006Z,13.27
2022-11-13T21:54:11.062Z,13.70
2022-11-13T21:56:56.695Z,12.23
2022-11-13T21:59:42.744Z,13.38
2022-11-13T22:02:28.546Z,13.15
2022-11-13T22:05:14.480Z,11.45
2022-11-13T22:08:00.058Z,12.85
2022-11-13T22:10:45.914Z,11.77
2022-11-13T22:13:32.184Z,11.82
2022-11-13T22:16:18.121Z,11.13
2022-11-13T22:19:06.274Z,11.15
2022-11-13T22:21:51.940Z,12.10
2022-11-13T22:24:37.849Z,11.57
2022-11-13T22:27:23.831Z,12.20
2022-11-13T22:30:10.464Z,12.55
2022-11-13T22:32:56.290Z,14.52
2022-11-13T22:35:42.346Z,12.43
2022-11-13T22:38:28.569Z,13.40
2022-11-13T22:41:25.821Z,14.30
2022-11-13T22:44:13.580Z,12.02
2022-11-13T22:46:59.562Z,12.57
2022-11-13T22:49:45.487Z,11.32
2022-11-13T22:52:31.325Z,10.32
2022-11-13T22:55:17.296Z,11.32
2022-11-13T22:58:03.244Z,11.80
2022-11-13T23:00:48.941Z,11.57
2022-11-13T23:03:39.528Z,11.32
2022-11-13T23:06:27.771Z,12.02
2022-11-13T23:09:13.656Z,14.13
2022-11-13T23:11:59.552Z,13.20
2022-11-13T23:14:46.488Z,12.68
2022-11-13T23:17:32.373Z,12.45
2022-11-13T23:20:18.279Z,12.55
2022-11-13T23:23:04.312Z,12.90
2022-11-13T23:25:50.591Z,11.27
2022-11-13T23:28:37.666Z,12.18
2022-11-13T23:31:24.412Z,11.65
2022-11-13T23:34:10.040Z,11.48
2022-11-13T23:36:56.108Z,11.50
2022-11-13T23:39:42.086Z,12.18
2022-11-13T23:42:53.567Z,12.13
2022-11-13T23:45:34.057Z,11.60
2022-11-13T23:48:20.424Z,12.00
2022-11-13T23:51:06.486Z,10.25
2022-11-13T23:53:52.147Z,13.30
2022-11-13T23:56:38.161Z,10.88
2022-11-13T23:59:23.926Z,12.55
